Time;durP1;ratioP1;P1;durP2;ratioP2;P2;SDS_P1;SDS_P2;PMS_P1;PMS_P2;Temp;Humidity;BMP_temperature;BMP_pressure;BME280_temperature;BME280_humidity;BME280_pressure;Samples;Min_cycle;Max_cycle;Signal;HPM_P1;HPM_P2
2022/01/01 00:01:24;;;;;;;;;;;13.20;99.90;;;;;;5134161;27;19952;-76
2022/01/01 00:03:51;;;;;;;;;;;13.20;99.90;;;;;;5134251;27;19908;-76
2022/01/01 00:06:16;;;;;;;;;;;13.20;99.90;;;;;;5133604;27;20108;-76
2022/01/01 00:08:42;;;;;;;;;;;13.10;99.90;;;;;;5134158;27;19911;-77
2022/01/01 00:11:08;;;;;;;;;;;;;;;;;;5133060;27;19922;-77
2022/01/01 00:13:33;;;;;;;;;;;;;;;;;;5134147;27;20375;-78
2022/01/01 00:15:59;;;;;;;;;;;13.20;99.90;;;;;;5133800;27;19914;-77
2022/01/01 00:18:24;;;;;;;;;;;13.20;99.90;;;;;;5134190;27;19907;-78
2022/01/01 00:20:50;;;;;;;;;;;13.20;99.90;;;;;;5133758;27;19924;-78
2022/01/01 00:23:15;;;;;;;;;;;13.10;99.90;;;;;;5133184;28;19976;-78
2022/01/01 00:25:41;;;;;;;;;;;13.30;99.90;;;;;;5133841;28;19908;-77
2022/01/01 00:28:07;;;;;;;;;;;13.20;99.90;;;;;;5133111;28;20373;-77
2022/01/01 00:30:32;;;;;;;;;;;13.10;99.90;;;;;;5115577;28;19907;-77
2022/01/01 00:32:58;;;;;;;;;;;;;;;;;;5133804;28;19923;-77
2022/01/01 00:35:23;;;;;;;;;;;13.10;99.90;;;;;;5133875;28;19998;-77
2022/01/01 00:37:49;;;;;;;;;;;13.20;99.90;;;;;;5133982;28;19960;-77
2022/01/01 00:40:14;;;;;;;;;;;13.10;99.90;;;;;;5133145;28;19908;-77
2022/01/01 00:42:40;;;;;;;;;;;13.10;99.90;;;;;;5134440;27;19907;-77
2022/01/01 00:45:06;;;;;;;;;;;;;;;;;;5137450;27;20347;-77
2022/01/01 00:47:31;;;;;;;;;;;13.20;99.90;;;;;;5137908;27;19922;-76
2022/01/01 00:49:57;;;;;;;;;;;;;;;;;;5138020;27;20310;-78
2022/01/01 00:52:23;;;;;;;;;;;13.10;99.90;;;;;;5136777;27;20010;-78
2022/01/01 00:54:48;;;;;;;;;;;13.20;99.90;;;;;;5137861;27;19908;-78
2022/01/01 00:57:14;;;;;;;;;;;13.20;99.90;;;;;;5137473;27;19908;-76
2022/01/01 00:59:39;;;;;;;;;;;13.30;99.90;;;;;;5137723;27;19911;-78
2022/01/01 01:02:05;;;;;;;;;;;13.20;99.90;;;;;;5137085;27;19908;-77
2022/01/01 01:04:30;;;;;;;;;;;13.50;99.90;;;;;;5137946;27;20304;-76
2022/01/01 01:06:56;;;;;;;;;;;13.20;99.90;;;;;;5137579;27;19912;-76
2022/01/01 01:09:21;;;;;;;;;;;13.20;99.90;;;;;;5136875;27;20002;-76
2022/01/01 01:11:51;;;;;;;;;;;;;;;;;;5137021;27;19958;-77
2022/01/01 01:14:22;;;;;;;;;;;;;;;;;;5136885;27;20412;-77
2022/01/01 01:16:48;;;;;;;;;;;13.30;99.90;;;;;;5137059;27;19911;-77
2022/01/01 01:19:14;;;;;;;;;;;13.30;99.90;;;;;;5136755;27;19912;-77
2022/01/01 01:21:40;;;;;;;;;;;;;;;;;;5137268;27;20315;-76
2022/01/01 01:24:06;;;;;;;;;;;13.20;99.90;;;;;;5136645;27;19971;-78
2022/01/01 01:26:31;;;;;;;;;;;13.20;99.90;;;;;;5137185;27;20266;-78
2022/01/01 01:28:58;;;;;;;;;;;;;;;;;;5137024;27;20394;-78
2022/01/01 01:31:24;;;;;;;;;;;13.20;99.90;;;;;;5136394;27;19960;-78
2022/01/01 01:33:50;;;;;;;;;;;13.10;99.90;;;;;;5136681;27;20310;-78
2022/01/01 01:36:16;;;;;;;;;;;13.20;99.90;;;;;;5136506;27;19907;-78
2022/01/01 01:38:41;;;;;;;;;;;13.00;99.90;;;;;;5136984;27;19911;-77
2022/01/01 01:41:07;;;;;;;;;;;;;;;;;;5136188;27;19915;-76
2022/01/01 01:43:33;;;;;;;;;;;13.10;99.90;;;;;;5136827;27;19938;-76
2022/01/01 01:46:04;;;;;;;;;;;13.10;99.90;;;;;;5136877;27;19929;-77
2022/01/01 01:48:35;;;;;;;;;;;13.10;99.90;;;;;;5136738;27;20438;-79
2022/01/01 01:51:01;;;;;;;;;;;13.00;99.90;;;;;;5136517;27;19915;-78
2022/01/01 01:53:26;;;;;;;;;;;13.00;99.90;;;;;;5135586;27;19930;-78
2022/01/01 01:55:53;;;;;;;;;;;13.00;99.90;;;;;;5136659;27;20369;-78
2022/01/01 01:58:18;;;;;;;;;;;13.00;99.90;;;;;;5136008;27;19994;-76
2022/01/01 02:03:28;;;;;;;;;;;13.10;99.90;;;;;;5135688;27;19956;-77
2022/01/01 02:05:54;;;;;;;;;;;13.00;99.90;;;;;;5136486;27;19907;-77
2022/01/01 02:08:21;;;;;;;;;;;13.20;99.90;;;;;;5135755;27;20263;-77
2022/01/01 02:10:49;;;;;;;;;;;13.00;99.90;;;;;;5136359;27;19907;-77
2022/01/01 02:13:24;;;;;;;;;;;13.00;99.90;;;;;;5117308;27;20287;-77
2022/01/01 02:18:18;;;;;;;;;;;12.80;99.90;;;;;;5135663;27;19958;-77
2022/01/01 02:20:49;;;;;;;;;;;13.00;99.90;;;;;;5136007;27;19930;-77
2022/01/01 02:23:15;;;;;;;;;;;13.00;99.90;;;;;;5135589;27;19916;-76
2022/01/01 02:25:41;;;;;;;;;;;13.00;99.90;;;;;;5136068;27;19958;-76
2022/01/01 02:28:07;;;;;;;;;;;12.90;99.90;;;;;;5135384;27;19955;-76
2022/01/01 02:30:32;;;;;;;;;;;13.00;99.90;;;;;;5135751;27;19960;-76
2022/01/01 02:32:58;;;;;;;;;;;13.00;99.90;;;;;;5135948;27;19922;-77
2022/01/01 02:35:24;;;;;;;;;;;13.00;99.90;;;;;;5135235;27;20266;-76
2022/01/01 02:37:49;;;;;;;;;;;13.00;99.90;;;;;;5135874;27;19943;-76
2022/01/01 02:40:15;;;;;;;;;;;13.10;99.90;;;;;;5135004;27;19907;-76
2022/01/01 02:42:42;;;;;;;;;;;13.00;99.90;;;;;;5135522;27;19960;-75
2022/01/01 02:45:09;;;;;;;;;;;13.00;99.90;;;;;;5135127;27;19912;-76
2022/01/01 02:47:35;;;;;;;;;;;13.00;99.90;;;;;;5135657;27;19908;-76
2022/01/01 02:50:01;;;;;;;;;;;13.10;99.90;;;;;;5135989;27;20338;-76
2022/01/01 02:52:27;;;;;;;;;;;;;;;;;;5135111;27;20394;-76
2022/01/01 02:54:52;;;;;;;;;;;13.00;99.90;;;;;;5135797;27;19942;-76
2022/01/01 02:57:18;;;;;;;;;;;12.90;99.90;;;;;;5134493;27;19908;-75
2022/01/01 02:59:43;;;;;;;;;;;13.00;99.90;;;;;;5135459;27;19943;-76
2022/01/01 03:02:09;;;;;;;;;;;12.90;99.90;;;;;;5134719;27;19912;-76
2022/01/01 03:04:35;;;;;;;;;;;12.90;99.90;;;;;;5135014;27;19947;-76
2022/01/01 03:07:00;;;;;;;;;;;12.90;99.90;;;;;;5134418;27;20263;-76
2022/01/01 03:09:34;;;;;;;;;;;12.90;99.90;;;;;;5134443;27;20370;-76
2022/01/01 03:12:03;;;;;;;;;;;12.90;99.90;;;;;;5134874;27;20295;-76
2022/01/01 03:14:29;;;;;;;;;;;12.80;99.90;;;;;;5134403;27;19914;-76
2022/01/01 03:16:55;;;;;;;;;;;13.00;99.90;;;;;;5135032;27;19908;-76
2022/01/01 03:19:21;;;;;;;;;;;12.60;99.90;;;;;;5134441;27;19907;-75
2022/01/01 03:21:46;;;;;;;;;;;12.90;99.90;;;;;;5134825;27;19930;-75
2022/01/01 03:24:12;;;;;;;;;;;12.90;99.90;;;;;;5134314;27;19939;-75
2022/01/01 03:26:38;;;;;;;;;;;;;;;;;;5134782;27;20270;-75
2022/01/01 03:29:04;;;;;;;;;;;12.90;99.90;;;;;;5134510;27;19908;-75
2022/01/01 03:31:29;;;;;;;;;;;12.90;99.90;;;;;;5134120;27;19919;-78
2022/01/01 03:33:57;;;;;;;;;;;12.90;99.90;;;;;;5134484;27;20413;-78
2022/01/01 03:36:23;;;;;;;;;;;12.90;99.90;;;;;;5134028;27;20355;-78
2022/01/01 03:38:49;;;;;;;;;;;12.80;99.90;;;;;;5134738;27;19915;-77
2022/01/01 03:41:14;;;;;;;;;;;12.90;99.90;;;;;;5133883;27;19938;-76
2022/01/01 03:43:40;;;;;;;;;;;12.80;99.90;;;;;;5134687;27;19937;-76
2022/01/01 03:46:06;;;;;;;;;;;12.80;99.90;;;;;;5134544;27;19914;-76
2022/01/01 03:48:31;;;;;;;;;;;12.70;99.90;;;;;;5133609;27;20359;-76
2022/01/01 03:50:57;;;;;;;;;;;12.70;99.90;;;;;;5134424;27;19923;-76
2022/01/01 03:53:24;;;;;;;;;;;12.80;99.90;;;;;;5133788;27;20003;-76
2022/01/01 03:55:50;;;;;;;;;;;12.90;99.90;;;;;;5134358;27;20002;-76
2022/01/01 03:58:15;;;;;;;;;;;12.90;99.90;;;;;;5133715;27;19942;-75
2022/01/01 04:00:41;;;;;;;;;;;12.90;99.90;;;;;;5134029;27;19990;-76
2022/01/01 04:03:07;;;;;;;;;;;12.80;99.90;;;;;;5134359;27;20351;-76
2022/01/01 04:05:35;;;;;;;;;;;13.10;99.90;;;;;;5133646;27;20332;-76
2022/01/01 04:08:01;;;;;;;;;;;;;;;;;;5134117;27;19914;-76
2022/01/01 04:10:26;;;;;;;;;;;12.90;99.90;;;;;;5133750;27;19908;-76
2022/01/01 04:12:52;;;;;;;;;;;12.90;99.90;;;;;;5134129;27;20369;-76
2022/01/01 04:15:17;;;;;;;;;;;;;;;;;;5133593;27;19919;-76
2022/01/01 04:17:43;;;;;;;;;;;12.90;99.90;;;;;;5133644;27;19907;-76
2022/01/01 04:20:09;;;;;;;;;;;12.70;99.90;;;;;;5133782;27;19952;-76
2022/01/01 04:22:34;;;;;;;;;;;13.10;99.90;;;;;;5133647;27;20351;-76
2022/01/01 04:25:00;;;;;;;;;;;12.80;99.90;;;;;;5134148;28;19907;-76
2022/01/01 04:27:25;;;;;;;;;;;12.80;99.90;;;;;;5133396;28;20240;-76
2022/01/01 04:29:51;;;;;;;;;;;12.70;99.90;;;;;;5133911;28;20248;-76
2022/01/01 04:32:18;;;;;;;;;;;12.90;99.90;;;;;;5133265;28;19962;-76
2022/01/01 04:34:43;;;;;;;;;;;12.90;99.90;;;;;;5133889;28;19964;-78
2022/01/01 04:37:13;;;;;;;;;;;12.90;99.90;;;;;;5133937;28;19965;-77
2022/01/01 04:39:39;;;;;;;;;;;12.80;99.90;;;;;;5133767;28;19907;-77
2022/01/01 04:42:05;;;;;;;;;;;12.80;99.90;;;;;;5133941;28;20347;-77
2022/01/01 04:44:30;;;;;;;;;;;12.90;99.90;;;;;;5133207;28;19907;-76
2022/01/01 04:46:56;;;;;;;;;;;12.90;99.90;;;;;;5134110;28;20355;-77
2022/01/01 04:49:22;;;;;;;;;;;12.80;99.90;;;;;;5133210;28;19955;-77
2022/01/01 04:51:48;;;;;;;;;;;12.70;99.90;;;;;;5133797;28;19927;-76
2022/01/01 04:54:17;;;;;;;;;;;;;;;;;;5114916;28;19915;-74
2022/01/01 04:56:44;;;;;;;;;;;12.90;99.90;;;;;;5133684;28;20346;-76
2022/01/01 04:59:11;;;;;;;;;;;12.80;99.90;;;;;;5133710;28;19912;-77
2022/01/01 05:01:36;;;;;;;;;;;12.90;99.90;;;;;;5133126;28;19970;-76
2022/01/01 05:04:02;;;;;;;;;;;12.80;99.90;;;;;;5133405;28;20371;-76
2022/01/01 05:06:28;;;;;;;;;;;;;;;;;;5133087;28;19912;-76
2022/01/01 05:08:53;;;;;;;;;;;12.80;99.90;;;;;;5133409;28;19914;-76
2022/01/01 05:11:19;;;;;;;;;;;12.70;99.90;;;;;;5132557;28;19959;-76
2022/01/01 05:13:44;;;;;;;;;;;12.80;99.90;;;;;;5133605;28;19907;-76
2022/01/01 05:16:15;;;;;;;;;;;12.80;99.90;;;;;;5133578;28;19908;-76
2022/01/01 05:18:40;;;;;;;;;;;12.80;99.90;;;;;;5133678;28;19908;-77
2022/01/01 05:21:06;;;;;;;;;;;12.80;99.90;;;;;;5133329;28;19924;-76
2022/01/01 05:23:32;;;;;;;;;;;12.90;99.90;;;;;;5132566;28;19907;-77
2022/01/01 05:25:58;;;;;;;;;;;;;;;;;;5133364;28;19911;-76
2022/01/01 05:28:23;;;;;;;;;;;12.80;99.90;;;;;;5132487;27;20010;-76
2022/01/01 05:30:50;;;;;;;;;;;12.70;99.90;;;;;;5136920;27;19914;-76
2022/01/01 05:33:16;;;;;;;;;;;;;;;;;;5136484;27;19919;-74
2022/01/01 05:35:42;;;;;;;;;;;12.80;99.90;;;;;;5137043;27;19907;-76
2022/01/01 05:38:07;;;;;;;;;;;;;;;;;;5137053;27;20347;-76
2022/01/01 05:40:33;;;;;;;;;;;12.80;99.90;;;;;;5136264;27;20256;-79
2022/01/01 05:42:58;;;;;;;;;;;12.50;99.90;;;;;;5136993;27;19907;-78
2022/01/01 05:45:24;;;;;;;;;;;12.70;99.90;;;;;;5136187;27;19908;-77
2022/01/01 05:47:50;;;;;;;;;;;12.70;99.90;;;;;;5136809;27;20369;-78
2022/01/01 05:50:17;;;;;;;;;;;12.70;99.90;;;;;;5136813;27;20303;-78
2022/01/01 05:52:43;;;;;;;;;;;12.70;99.90;;;;;;5136890;27;19924;-77
2022/01/01 05:55:08;;;;;;;;;;;12.80;99.90;;;;;;5136739;27;19911;-78
2022/01/01 05:57:34;;;;;;;;;;;;;;;;;;5136013;27;19907;-77
2022/01/01 06:00:00;;;;;;;;;;;12.70;99.90;;;;;;5136609;27;19907;-78
2022/01/01 06:02:25;;;;;;;;;;;12.70;99.90;;;;;;5135961;27;19994;-77
2022/01/01 06:04:51;;;;;;;;;;;12.70;99.90;;;;;;5136552;27;19915;-77
2022/01/01 06:07:16;;;;;;;;;;;12.70;99.90;;;;;;5136536;27;19930;-78
2022/01/01 06:09:42;;;;;;;;;;;12.70;99.90;;;;;;5135975;27;19908;-77
2022/01/01 06:12:08;;;;;;;;;;;;;;;;;;5136052;27;19920;-78
2022/01/01 06:14:33;;;;;;;;;;;12.70;99.90;;;;;;5135719;27;20422;-77
2022/01/01 06:16:59;;;;;;;;;;;12.70;99.90;;;;;;5136286;27;20282;-78
2022/01/01 06:19:24;;;;;;;;;;;12.70;99.90;;;;;;5135746;27;19908;-77
2022/01/01 06:21:50;;;;;;;;;;;12.70;99.90;;;;;;5136122;27;19923;-77
2022/01/01 06:24:15;;;;;;;;;;;12.60;99.90;;;;;;5136288;27;20037;-78
2022/01/01 06:26:41;;;;;;;;;;;12.70;99.90;;;;;;5135784;27;19915;-78
2022/01/01 06:29:06;;;;;;;;;;;12.60;99.90;;;;;;5136042;27;19969;-77
2022/01/01 06:31:32;;;;;;;;;;;12.50;99.90;;;;;;5135260;27;19972;-77
2022/01/01 06:33:58;;;;;;;;;;;;;;;;;;5135937;27;19911;-77
2022/01/01 06:36:23;;;;;;;;;;;12.70;99.90;;;;;;5135343;27;19907;-75
2022/01/01 06:38:48;;;;;;;;;;;12.70;99.90;;;;;;5135565;27;19969;-77
2022/01/01 06:41:15;;;;;;;;;;;12.70;99.90;;;;;;5135691;27;19908;-77
2022/01/01 06:43:41;;;;;;;;;;;12.70;99.90;;;;;;5135195;27;19912;-76
2022/01/01 06:46:06;;;;;;;;;;;12.70;99.90;;;;;;5135732;27;20279;-77
2022/01/01 06:48:32;;;;;;;;;;;12.70;99.90;;;;;;5135057;27;19912;-76
2022/01/01 06:50:58;;;;;;;;;;;;;;;;;;5135737;27;19915;-76
2022/01/01 06:53:23;;;;;;;;;;;12.60;99.90;;;;;;5134865;27;19943;-76
2022/01/01 06:55:49;;;;;;;;;;;12.50;99.90;;;;;;5135344;27;20274;-77
2022/01/01 06:58:15;;;;;;;;;;;12.60;99.90;;;;;;5135366;27;19911;-76
2022/01/01 07:00:40;;;;;;;;;;;12.60;99.90;;;;;;5134522;27;19911;-77
2022/01/01 07:03:06;;;;;;;;;;;12.60;99.90;;;;;;5135346;27;19907;-76
2022/01/01 07:05:32;;;;;;;;;;;12.60;99.90;;;;;;5134720;27;19907;-76
2022/01/01 07:07:57;;;;;;;;;;;12.70;99.90;;;;;;5134961;27;20037;-76
2022/01/01 07:10:23;;;;;;;;;;;12.60;99.90;;;;;;5134508;27;19945;-76
2022/01/01 07:12:48;;;;;;;;;;;12.60;99.90;;;;;;5135059;27;20370;-76
2022/01/01 07:15:15;;;;;;;;;;;12.60;99.90;;;;;;5135512;27;20386;-76
2022/01/01 07:17:42;;;;;;;;;;;12.60;99.90;;;;;;5116134;27;20238;-76
2022/01/01 07:20:07;;;;;;;;;;;12.80;99.90;;;;;;5135049;27;19990;-76
2022/01/01 07:22:40;;;;;;;;;;;12.70;99.90;;;;;;5134363;27;20003;-76
2022/01/01 07:25:05;;;;;;;;;;;12.70;99.90;;;;;;5134990;27;19908;-77
2022/01/01 07:27:31;;;;;;;;;;;12.70;99.90;;;;;;5134280;27;19922;-77
2022/01/01 07:29:56;;;;;;;;;;;12.70;99.90;;;;;;5134820;27;20312;-76
2022/01/01 07:32:24;;;;;;;;;;;;;;;;;;5134063;27;19919;-76
2022/01/01 07:34:49;;;;;;;;;;;12.70;99.90;;;;;;5134795;27;20044;-76
2022/01/01 07:37:15;;;;;;;;;;;12.60;99.90;;;;;;5135071;27;19943;-76
2022/01/01 07:39:40;;;;;;;;;;;12.60;99.90;;;;;;5133939;27;19914;-76
2022/01/01 07:42:06;;;;;;;;;;;12.50;99.90;;;;;;5134646;27;19911;-76
2022/01/01 07:44:32;;;;;;;;;;;12.60;99.90;;;;;;5134331;27;20274;-76
2022/01/01 07:46:57;;;;;;;;;;;12.50;99.90;;;;;;5134606;27;19918;-77
2022/01/01 07:49:23;;;;;;;;;;;;;;;;;;5133974;27;19908;-73
2022/01/01 07:51:49;;;;;;;;;;;12.60;99.90;;;;;;5134096;27;20302;-77
2022/01/01 07:54:14;;;;;;;;;;;12.60;99.90;;;;;;5134446;27;20343;-76
2022/01/01 07:56:39;;;;;;;;;;;12.60;99.90;;;;;;5133803;27;20007;-76
2022/01/01 07:59:05;;;;;;;;;;;12.60;99.90;;;;;;5134849;27;20343;-76
2022/01/01 08:01:30;;;;;;;;;;;12.60;99.90;;;;;;5133715;27;19908;-76
2022/01/01 08:04:01;;;;;;;;;;;;;;;;;;5134551;27;20262;-76
2022/01/01 08:06:28;;;;;;;;;;;12.70;99.90;;;;;;5133715;27;19914;-76
2022/01/01 08:08:54;;;;;;;;;;;12.70;99.90;;;;;;5133828;27;20360;-76
2022/01/01 08:11:19;;;;;;;;;;;12.70;99.90;;;;;;5134089;27;19911;-76
2022/01/01 08:13:44;;;;;;;;;;;12.70;99.90;;;;;;5133227;27;19913;-76
2022/01/01 08:16:10;;;;;;;;;;;12.70;99.90;;;;;;5134163;27;20338;-76
2022/01/01 08:18:35;;;;;;;;;;;12.80;99.90;;;;;;5133450;27;19907;-75
2022/01/01 08:21:01;;;;;;;;;;;12.80;99.90;;;;;;5133616;27;19923;-76
2022/01/01 08:23:26;;;;;;;;;;;12.90;99.90;;;;;;5133376;27;19915;-75
2022/01/01 08:25:52;;;;;;;;;;;13.00;99.90;;;;;;5133930;28;19914;-76
2022/01/01 08:28:18;;;;;;;;;;;;;;;;;;5133912;28;19915;-76
2022/01/01 08:30:43;;;;;;;;;;;12.90;99.90;;;;;;5133313;28;19908;-76
2022/01/01 08:33:09;;;;;;;;;;;13.00;99.90;;;;;;5133911;28;19984;-76
2022/01/01 08:35:35;;;;;;;;;;;12.90;99.90;;;;;;5133294;28;19990;-76
2022/01/01 08:38:04;;;;;;;;;;;13.00;99.90;;;;;;5133907;28;19908;-76
2022/01/01 08:40:30;;;;;;;;;;;13.10;99.90;;;;;;5133163;28;19915;-76
2022/01/01 08:42:55;;;;;;;;;;;13.10;99.90;;;;;;5133892;28;19907;-78
2022/01/01 08:45:21;;;;;;;;;;;13.00;99.90;;;;;;5133997;28;19978;-76
2022/01/01 08:47:46;;;;;;;;;;;13.00;99.90;;;;;;5133191;28;19908;-75
2022/01/01 08:50:12;;;;;;;;;;;13.00;99.90;;;;;;5133791;28;20378;-75
2022/01/01 08:52:38;;;;;;;;;;;;;;;;;;5132689;28;19928;-75
2022/01/01 08:55:04;;;;;;;;;;;12.90;99.90;;;;;;5133730;28;19908;-75
2022/01/01 08:57:31;;;;;;;;;;;12.90;99.90;;;;;;5133410;28;19915;-74
2022/01/01 08:59:57;;;;;;;;;;;12.90;99.90;;;;;;5133707;28;19951;-77
2022/01/01 09:02:23;;;;;;;;;;;12.80;99.90;;;;;;5133865;28;20286;-77
2022/01/01 09:04:48;;;;;;;;;;;12.90;99.90;;;;;;5135380;27;19946;-77
2022/01/01 09:07:14;;;;;;;;;;;12.90;99.90;;;;;;5137647;27;20019;-77
2022/01/01 09:09:39;;;;;;;;;;;12.90;99.90;;;;;;5136685;27;20355;-77
2022/01/01 09:12:06;;;;;;;;;;;13.00;99.90;;;;;;5137518;27;19960;-77
2022/01/01 09:14:32;;;;;;;;;;;13.00;99.90;;;;;;5136664;27;20327;-76
2022/01/01 09:16:57;;;;;;;;;;;13.00;99.90;;;;;;5137783;27;19951;-77
2022/01/01 09:19:23;;;;;;;;;;;13.00;99.90;;;;;;5137497;27;19915;-77
2022/01/01 09:21:48;;;;;;;;;;;13.00;99.90;;;;;;5136508;27;19941;-76
2022/01/01 09:24:14;;;;;;;;;;;13.00;99.90;;;;;;5137227;27;19907;-77
2022/01/01 09:26:39;;;;;;;;;;;12.90;99.90;;;;;;5136316;27;19907;-76
2022/01/01 09:29:06;;;;;;;;;;;13.20;99.90;;;;;;5118795;27;19915;-76
2022/01/01 09:31:32;;;;;;;;;;;13.10;99.90;;;;;;5136542;27;19940;-76
2022/01/01 09:33:58;;;;;;;;;;;;;;;;;;5137060;27;20294;-75
2022/01/01 09:36:24;;;;;;;;;;;13.10;99.90;;;;;;5137156;27;19930;-75
2022/01/01 09:38:49;;;;;;;;;;;13.10;99.90;;;;;;5136480;27;19922;-76
2022/01/01 09:41:15;;;;;;;;;;;13.10;99.90;;;;;;5116717;28;19931;-76
2022/01/01 09:43:40;;;;;;;;;;;13.10;99.90;;;;;;5115838;28;20006;-75
2022/01/01 09:46:06;;;;;;;;;;;13.10;99.90;;;;;;5116069;28;20271;-75
2022/01/01 09:48:32;;;;;;;;;;;13.20;99.90;;;;;;5115747;28;19908;-75
2022/01/01 09:51:02;;;;;;;;;;;13.20;99.90;;;;;;5116309;28;19926;-75
2022/01/01 09:53:28;;;;;;;;;;;13.20;99.90;;;;;;5116221;28;19916;-75
2022/01/01 09:55:55;;;;;;;;;;;13.30;99.90;;;;;;5115473;28;19908;-75
2022/01/01 09:58:21;;;;;;;;;;;13.30;99.90;;;;;;5116169;28;19912;-75
2022/01/01 10:00:49;;;;;;;;;;;13.40;99.90;;;;;;5115513;28;19968;-75
2022/01/01 10:03:14;;;;;;;;;;;13.40;99.90;;;;;;5116063;28;19915;-75
2022/01/01 10:05:56;;;;;;;;;;;13.40;99.90;;;;;;5115425;28;19908;-75
2022/01/01 10:08:22;;;;;;;;;;;13.40;99.90;;;;;;5115696;28;20279;-75
2022/01/01 10:10:49;;;;;;;;;;;;;;;;;;5130501;27;19918;-75
2022/01/01 10:13:15;;;;;;;;;;;;;;;;;;5135431;27;19916;-75
2022/01/01 10:15:41;;;;;;;;;;;13.50;99.90;;;;;;5135142;27;20019;-75
2022/01/01 10:18:06;;;;;;;;;;;13.50;99.90;;;;;;5136332;27;19914;-75
2022/01/01 10:20:35;;;;;;;;;;;13.50;99.90;;;;;;5135157;27;20371;-74
2022/01/01 10:23:11;;;;;;;;;;;13.50;99.90;;;;;;5136025;27;19980;-77
2022/01/01 10:28:21;;;;;;;;;;;13.60;99.90;;;;;;5135881;27;19915;-76
2022/01/01 10:30:48;;;;;;;;;;;13.60;99.90;;;;;;5135559;27;19908;-77
2022/01/01 10:33:18;;;;;;;;;;;13.60;99.90;;;;;;5117078;27;20274;-77
2022/01/01 10:35:47;;;;;;;;;;;13.60;99.90;;;;;;5134889;27;19907;-76
2022/01/01 10:38:20;;;;;;;;;;;13.70;99.90;;;;;;5135534;27;19968;-77
2022/01/01 10:40:46;;;;;;;;;;;13.70;99.90;;;;;;5134514;27;19907;-76
2022/01/01 10:43:13;;;;;;;;;;;13.70;99.90;;;;;;5135027;27;20271;-77
2022/01/01 10:45:38;;;;;;;;;;;;;;;;;;5115962;27;19918;-77
2022/01/01 10:48:41;;;;;;;;;;;13.70;99.90;;;;;;5135849;27;19907;-78
2022/01/01 10:51:07;;;;;;;;;;;13.80;99.90;;;;;;5126101;27;19922;-83
2022/01/01 10:53:34;;;;;;;;;;;;;;;;;;5105420;27;19920;-75
2022/01/01 10:56:16;;;;;;;;;;;13.80;99.90;;;;;;5103714;28;20055;-73
2022/01/01 10:58:42;;;;;;;;;;;13.90;99.90;;;;;;5102765;28;20275;-72
2022/01/01 11:01:08;;;;;;;;;;;;;;;;;;5105546;27;19918;-81
2022/01/01 11:03:34;;;;;;;;;;;;;;;;;;5105441;27;19908;-76
2022/01/01 11:06:13;;;;;;;;;;;14.00;99.90;;;;;;5103604;27;19908;-74
2022/01/01 11:08:39;;;;;;;;;;;;;;;;;;5103224;27;19915;-72
2022/01/01 11:11:04;;;;;;;;;;;14.00;99.90;;;;;;5116202;27;19907;-73
2022/01/01 11:13:34;;;;;;;;;;;14.00;99.90;;;;;;5134641;27;19921;-72
2022/01/01 11:16:00;;;;;;;;;;;14.00;99.90;;;;;;5126198;27;19911;-73
2022/01/01 11:18:26;;;;;;;;;;;14.10;99.90;;;;;;5096394;28;19930;-75
2022/01/01 11:20:52;;;;;;;;;;;14.30;99.90;;;;;;5094815;28;20011;-74
2022/01/01 11:23:19;;;;;;;;;;;14.00;99.90;;;;;;5095808;28;19914;-74
2022/01/01 11:25:45;;;;;;;;;;;14.10;99.90;;;;;;5094942;28;20014;-75
2022/01/01 11:28:12;;;;;;;;;;;14.10;99.90;;;;;;5095114;28;19915;-75
2022/01/01 11:30:39;;;;;;;;;;;;;;;;;;5113681;28;20395;-76
2022/01/01 11:33:09;;;;;;;;;;;14.40;99.90;;;;;;5095645;28;19919;-75
2022/01/01 11:35:35;;;;;;;;;;;;;;;;;;5113550;28;20390;-75
2022/01/01 11:38:00;;;;;;;;;;;14.70;99.90;;;;;;5113753;28;19908;-76
2022/01/01 11:40:27;;;;;;;;;;;14.60;99.90;;;;;;5126988;27;19911;-75
2022/01/01 11:42:53;;;;;;;;;;;14.20;99.90;;;;;;5133142;27;20002;-75
2022/01/01 11:45:18;;;;;;;;;;;;;;;;;;5115597;27;19958;-76
2022/01/01 11:47:48;;;;;;;;;;;14.80;99.90;;;;;;5133887;27;20377;-75
2022/01/01 11:50:14;;;;;;;;;;;;;;;;;;5134484;27;19960;-75
2022/01/01 11:52:40;;;;;;;;;;;;;;;;;;5132961;27;19924;-75
2022/01/01 11:55:10;;;;;;;;;;;15.00;99.90;;;;;;5115686;27;19914;-77
2022/01/01 11:57:36;;;;;;;;;;;15.10;99.90;;;;;;5133935;27;19935;-77
2022/01/01 12:00:21;;;;;;;;;;;15.20;99.90;;;;;;5132979;27;19914;-73
2022/01/01 12:02:49;;;;;;;;;;;15.30;99.90;;;;;;5132930;27;19915;-76
2022/01/01 12:05:19;;;;;;;;;;;15.00;99.90;;;;;;5115558;27;19955;-76
2022/01/01 12:07:49;;;;;;;;;;;15.00;99.90;;;;;;5133058;27;19911;-77
2022/01/01 12:10:16;;;;;;;;;;;15.10;99.90;;;;;;5130351;27;19915;-76
2022/01/01 12:12:42;;;;;;;;;;;;;;;;;;5114650;27;19916;-76
2022/01/01 12:15:08;;;;;;;;;;;15.20;99.90;;;;;;5095003;28;19953;-75
2022/01/01 12:17:44;;;;;;;;;;;15.20;99.90;;;;;;5112385;28;19911;-77
2022/01/01 12:20:10;;;;;;;;;;;15.00;99.90;;;;;;5094855;28;20287;-77
2022/01/01 12:22:37;;;;;;;;;;;15.10;99.90;;;;;;5113234;28;19977;-76
2022/01/01 12:25:02;;;;;;;;;;;15.10;99.90;;;;;;5112613;28;19919;-75
2022/01/01 12:27:28;;;;;;;;;;;;;;;;;;5112804;28;19912;-75
2022/01/01 12:30:04;;;;;;;;;;;15.30;99.90;;;;;;5112238;28;19908;-75
2022/01/01 12:32:39;;;;;;;;;;;15.00;99.90;;;;;;5114238;28;19980;-76
2022/01/01 12:35:09;;;;;;;;;;;15.20;99.90;;;;;;5112014;28;19998;-76
2022/01/01 12:37:35;;;;;;;;;;;;;;;;;;5133835;27;19960;-77
2022/01/01 12:40:03;;;;;;;;;;;15.20;99.90;;;;;;5127590;27;20006;-79
2022/01/01 12:42:28;;;;;;;;;;;;;;;;;;5116907;28;20436;-78
2022/01/01 12:44:59;;;;;;;;;;;15.40;99.90;;;;;;5098173;28;19908;-78
2022/01/01 12:47:26;;;;;;;;;;;15.40;99.90;;;;;;5117123;28;19915;-78
2022/01/01 12:49:52;;;;;;;;;;;15.50;99.90;;;;;;5116103;28;20018;-78
2022/01/01 12:52:22;;;;;;;;;;;15.80;99.90;;;;;;5117278;28;19946;-78
2022/01/01 12:54:49;;;;;;;;;;;15.60;99.90;;;;;;5116238;28;19908;-78
2022/01/01 12:57:16;;;;;;;;;;;15.10;99.90;;;;;;5107012;27;19911;-78
2022/01/01 12:59:42;;;;;;;;;;;;;;;;;;5118372;27;19907;-75
2022/01/01 13:02:09;;;;;;;;;;;;;;;;;;5137238;27;19914;-79
2022/01/01 13:04:34;;;;;;;;;;;15.30;99.90;;;;;;5137545;27;19907;-79
2022/01/01 13:07:00;;;;;;;;;;;15.40;99.90;;;;;;5136663;27;19908;-78
2022/01/01 13:09:28;;;;;;;;;;;15.40;99.90;;;;;;5137310;27;19908;-80
2022/01/01 13:11:57;;;;;;;;;;;15.30;99.90;;;;;;5136480;27;19915;-79
2022/01/01 13:14:23;;;;;;;;;;;15.40;99.90;;;;;;5137317;27;19912;-79
2022/01/01 13:16:49;;;;;;;;;;;;;;;;;;5136214;27;19984;-78
2022/01/01 13:19:14;;;;;;;;;;;15.50;99.90;;;;;;5136871;27;20378;-79
2022/01/01 13:21:41;;;;;;;;;;;15.50;99.90;;;;;;5137111;27;20255;-78
2022/01/01 13:24:10;;;;;;;;;;;15.40;99.90;;;;;;5136900;27;19994;-79
2022/01/01 13:26:36;;;;;;;;;;;15.50;99.90;;;;;;5137248;27;19912;-80
2022/01/01 13:29:02;;;;;;;;;;;15.40;99.90;;;;;;5137218;27;19920;-82
2022/01/01 13:31:29;;;;;;;;;;;15.30;99.90;;;;;;5136888;27;19999;-71
2022/01/01 13:33:56;;;;;;;;;;;15.30;99.90;;;;;;5136088;27;20358;-72
2022/01/01 13:36:32;;;;;;;;;;;15.30;99.90;;;;;;5117969;27;19926;-75
2022/01/01 13:38:58;;;;;;;;;;;15.30;99.90;;;;;;5135625;27;19914;-75
2022/01/01 13:41:31;;;;;;;;;;;15.40;99.90;;;;;;5136704;27;19907;-75
2022/01/01 13:43:56;;;;;;;;;;;15.20;99.90;;;;;;5135919;27;19911;-75
2022/01/01 13:46:22;;;;;;;;;;;;;;;;;;5136183;27;19907;-74
2022/01/01 13:48:49;;;;;;;;;;;15.10;99.90;;;;;;5117545;27;19907;-74
2022/01/01 13:51:17;;;;;;;;;;;15.00;99.90;;;;;;5135831;27;19968;-74
2022/01/01 13:53:43;;;;;;;;;;;;;;;;;;5136330;27;19919;-75
2022/01/01 13:56:10;;;;;;;;;;;15.10;99.90;;;;;;5136633;27;20361;-73
2022/01/01 13:58:49;;;;;;;;;;;15.20;99.90;;;;;;5136789;27;19976;-73
2022/01/01 14:01:18;;;;;;;;;;;15.00;99.90;;;;;;5136718;27;19907;-74
2022/01/01 14:03:44;;;;;;;;;;;;;;;;;;5136004;27;19942;-73
2022/01/01 14:06:10;;;;;;;;;;;14.80;99.90;;;;;;5136758;27;19915;-73
2022/01/01 14:08:36;;;;;;;;;;;14.90;99.90;;;;;;5136618;27;20006;-74
2022/01/01 14:11:02;;;;;;;;;;;15.00;99.90;;;;;;5117322;27;19938;-74
2022/01/01 14:13:36;;;;;;;;;;;15.10;99.90;;;;;;5135972;27;20015;-75
2022/01/01 14:16:14;;;;;;;;;;;15.20;99.90;;;;;;5135717;27;20385;-71
2022/01/01 14:18:40;;;;;;;;;;;15.40;99.90;;;;;;5117936;27;20373;-73
2022/01/01 14:21:07;;;;;;;;;;;15.20;99.90;;;;;;5135076;27;20025;-73
2022/01/01 14:23:34;;;;;;;;;;;15.20;99.90;;;;;;5136189;27;19912;-73
2022/01/01 14:26:26;;;;;;;;;;;14.60;99.90;;;;;;5135110;27;19908;-73
2022/01/01 14:28:54;;;;;;;;;;;14.70;99.90;;;;;;5130547;27;19989;-73
2022/01/01 14:31:20;;;;;;;;;;;14.80;99.90;;;;;;5136115;27;19907;-73
2022/01/01 14:33:49;;;;;;;;;;;14.60;99.90;;;;;;5135481;27;20010;-73
2022/01/01 14:36:15;;;;;;;;;;;14.60;99.90;;;;;;5135922;27;19908;-74
2022/01/01 14:38:42;;;;;;;;;;;14.60;99.90;;;;;;5113610;27;19914;-73
2022/01/01 14:41:07;;;;;;;;;;;14.70;99.90;;;;;;5114101;27;19914;-73